Time;durP1;ratioP1;P1;durP2;ratioP2;P2;SDS_P1;SDS_P2;PMS_P1;PMS_P2;Temp;Humidity;BMP_temperature;BMP_pressure;BME280_temperature;BME280_humidity;BME280_pressure;Samples;Min_cycle;Max_cycle;Signal;HPM_P1;HPM_P2
2023/09/30 00:01:10;;;;;;;7.55;3.50;;;;;;;17.76;70.47;102561.94;5029458;28;20116;-74
2023/09/30 00:03:39;;;;;;;7.40;3.25;;;;;;;17.77;70.61;102569.88;5029742;28;20042;-75
2023/09/30 00:06:04;;;;;;;7.13;3.42;;;;;;;17.83;70.43;102562.03;5032739;28;20038;-75
2023/09/30 00:08:30;;;;;;;8.65;3.72;;;;;;;17.76;70.67;102567.22;5033359;28;20039;-75
2023/09/30 00:10:59;;;;;;;10.02;3.67;;;;;;;17.86;70.22;102560.31;5032663;28;20044;-75
2023/09/30 00:13:28;;;;;;;10.48;4.10;;;;;;;17.86;70.36;102562.94;5033056;28;20032;-75
2023/09/30 00:15:53;;;;;;;7.75;3.40;;;;;;;17.89;70.28;102563.84;5031230;28;20412;-75
2023/09/30 00:18:28;;;;;;;8.98;3.67;;;;;;;17.82;70.83;102576.09;5033713;28;20033;-75
2023/09/30 00:20:53;;;;;;;9.13;4.25;;;;;;;17.86;70.86;102573.50;5032481;28;20479;-75
2023/09/30 00:23:21;;;;;;;8.60;4.13;;;;;;;17.88;70.72;102566.47;5032705;28;20045;-75
2023/09/30 00:25:46;;;;;;;7.75;3.47;;;;;;;17.91;70.43;102556.84;5032468;28;20041;-75
2023/09/30 00:28:12;;;;;;;6.63;3.40;;;;;;;17.93;70.39;102565.63;5033594;28;20032;-75
2023/09/30 00:30:38;;;;;;;8.07;3.63;;;;;;;17.87;70.66;102572.63;5032995;28;20033;-75
2023/09/30 00:33:06;;;;;;;8.50;3.38;;;;;;;17.88;70.34;102564.72;5032381;28;20040;-75
2023/09/30 00:35:38;;;;;;;7.90;3.47;;;;;;;17.82;70.01;102569.91;5033252;28;20038;-75
2023/09/30 00:38:06;;;;;;;6.97;3.47;;;;;;;17.69;70.63;102576.81;5032662;28;20064;-75
2023/09/30 00:40:31;;;;;;;9.02;3.67;;;;;;;17.63;70.38;102584.66;5040554;28;20061;-74
2023/09/30 00:43:03;;;;;;;8.80;3.63;;;;;;;17.60;70.21;102586.34;5051522;28;20030;-75
2023/09/30 00:45:28;;;;;;;7.28;3.22;;;;;;;17.55;70.76;102596.88;5049168;28;20037;-76
2023/09/30 00:47:54;;;;;;;9.10;3.45;;;;;;;17.58;70.80;102591.59;5034681;28;20036;-75
2023/09/30 00:50:28;;;;;;;8.48;3.55;;;;;;;17.50;71.15;102589.75;5032618;28;20041;-77
2023/09/30 00:52:54;;;;;;;7.65;3.20;;;;;;;17.55;71.34;102595.97;5031721;28;20561;-75
2023/09/30 00:55:29;;;;;;;8.20;3.25;;;;;;;17.56;71.23;102597.75;5032627;28;20046;-75
2023/09/30 00:58:04;;;;;;;7.20;3.30;;;;;;;17.54;71.20;102600.34;5032053;28;20033;-75
2023/09/30 01:00:31;;;;;;;7.32;3.15;;;;;;;17.51;71.13;102608.22;5032735;28;20044;-75
2023/09/30 01:02:59;;;;;;;8.77;3.40;;;;;;;17.51;71.31;102612.59;5032104;28;20059;-75
2023/09/30 01:05:31;;;;;;;8.40;3.40;;;;;;;17.35;72.48;102628.25;5032611;28;20026;-75
2023/09/30 01:07:57;;;;;;;8.93;3.55;;;;;;;17.34;72.55;102625.56;5032169;28;20041;-75
2023/09/30 01:10:34;;;;;;;6.97;3.22;;;;;;;17.37;72.52;102613.34;5032140;28;20505;-75
2023/09/30 01:12:59;;;;;;;6.43;3.67;;;;;;;17.39;72.23;102603.69;5030304;28;20036;-78
2023/09/30 01:15:25;;;;;;;8.38;3.40;;;;;;;17.42;71.56;102605.47;5032476;28;20025;-75
2023/09/30 01:17:50;;;;;;;8.82;3.47;;;;;;;17.34;71.43;102621.19;5031921;28;20051;-75
2023/09/30 01:20:22;;;;;;;8.10;3.47;;;;;;;17.27;71.91;102613.16;5031972;28;20026;-75
2023/09/30 01:22:47;;;;;;;6.63;3.20;;;;;;;17.24;71.87;102606.13;5031077;28;20402;-75
2023/09/30 01:25:12;;;;;;;8.73;3.50;;;;;;;17.23;71.69;102600.81;5031817;28;20025;-75
2023/09/30 01:27:41;;;;;;;8.20;3.20;;;;;;;17.21;72.08;102605.19;5031814;28;20414;-75
2023/09/30 01:30:10;;;;;;;6.07;3.30;;;;;;;17.18;72.17;102602.53;5031332;28;20529;-75
2023/09/30 01:32:36;;;;;;;6.82;3.30;;;;;;;17.17;72.56;102598.09;5031171;28;20034;-78
2023/09/30 01:35:14;;;;;;;7.60;3.40;;;;;;;17.16;72.77;102612.16;5031221;28;20092;-76
2023/09/30 01:37:42;;;;;;;7.72;3.42;;;;;;;17.23;72.58;102600.81;5031602;28;20072;-75
2023/09/30 01:40:20;;;;;;;8.05;3.33;;;;;;;17.31;73.12;102600.06;5031165;28;20084;-76
2023/09/30 01:42:45;;;;;;;8.35;3.65;;;;;;;17.37;73.66;102602.78;5030941;28;20033;-75
2023/09/30 01:45:13;;;;;;;8.65;4.00;;;;;;;17.48;73.96;102607.31;5031529;28;20033;-76
2023/09/30 01:47:39;;;;;;;10.65;3.58;;;;;;;17.60;73.85;102613.66;5031698;28;20034;-75
2023/09/30 01:50:07;;;;;;;8.80;3.72;;;;;;;17.63;74.16;102613.66;5031575;28;20491;-76
2023/09/30 01:52:35;;;;;;;11.25;3.80;;;;;;;17.71;74.20;102614.66;5031779;28;20025;-75
2023/09/30 01:55:01;;;;;;;9.02;3.70;;;;;;;17.79;74.20;102626.19;5031463;28;20076;-75
2023/09/30 01:57:26;;;;;;;8.80;3.90;;;;;;;17.86;74.10;102607.78;5032323;28;20045;-76
2023/09/30 01:59:51;;;;;;;9.77;3.80;;;;;;;17.90;74.00;102607.84;5031703;28;20064;-76
2023/09/30 02:02:20;;;;;;;10.30;4.00;;;;;;;17.73;74.70;102609.41;5031261;28;20037;-75
2023/09/30 02:04:45;;;;;;;9.32;3.83;;;;;;;17.81;74.40;102619.16;5031130;28;20403;-75
2023/09/30 02:07:11;;;;;;;11.00;4.25;;;;;;;17.75;74.84;102619.09;5031362;28;20045;-75
2023/09/30 02:09:43;;;;;;;8.45;4.05;;;;;;;17.87;74.50;102618.34;5032306;28;20049;-75
2023/09/30 02:12:09;;;;;;;8.35;3.70;;;;;;;17.94;74.00;102611.38;5031434;28;20097;-75
2023/09/30 02:14:38;;;;;;;12.20;4.28;;;;;;;17.76;74.89;102601.50;5031488;28;20125;-75
2023/09/30 02:17:04;;;;;;;10.10;3.88;;;;;;;17.82;74.58;102598.94;5031261;28;20030;-76
2023/09/30 02:19:31;;;;;;;14.15;4.47;;;;;;;17.87;74.42;102586.69;5031627;28;20042;-76
2023/09/30 02:21:56;;;;;;;8.48;3.67;;;;;;;17.90;74.39;102594.66;5030229;28;20049;-75
2023/09/30 02:24:23;;;;;;;10.52;4.20;;;;;;;17.90;74.53;102606.94;5031570;28;20030;-76
2023/09/30 02:26:48;;;;;;;8.82;4.00;;;;;;;17.92;74.54;102608.75;5031277;28;20518;-76
2023/09/30 02:29:16;;;;;;;8.50;4.15;;;;;;;17.84;74.82;102600.75;5031984;28;20029;-78
2023/09/30 02:31:48;;;;;;;11.13;4.40;;;;;;;17.82;74.97;102591.03;5030970;28;20048;-77
2023/09/30 02:34:19;;;;;;;14.52;5.03;;;;;;;17.80;74.82;102593.69;5031277;28;20056;-75
2023/09/30 02:36:48;;;;;;;11.63;4.85;;;;;;;17.79;74.93;102588.38;5030407;28;20037;-75
2023/09/30 02:39:17;;;;;;;10.45;4.68;;;;;;;17.86;74.70;102587.56;5030999;28;20030;-75
2023/09/30 02:41:43;;;;;;;11.55;4.60;;;;;;;18.00;74.27;102592.97;5030609;28;20124;-78
2023/09/30 02:44:08;;;;;;;10.68;4.47;;;;;;;18.08;73.64;102597.47;5030500;28;20109;-76
2023/09/30 02:46:34;;;;;;;11.38;4.47;;;;;;;18.09;73.72;102601.88;5030953;28;20132;-75
2023/09/30 02:49:02;;;;;;;9.55;4.90;;;;;;;18.07;73.60;102606.25;5030042;28;20128;-75
2023/09/30 02:51:28;;;;;;;9.00;4.45;;;;;;;18.13;73.43;102603.69;5030936;28;20056;-76
2023/09/30 02:53:59;;;;;;;10.23;5.00;;;;;;;18.14;73.47;102601.91;5031042;28;20445;-77
2023/09/30 02:56:30;;;;;;;9.57;4.50;;;;;;;18.10;73.65;102595.75;5031023;28;20054;-78
2023/09/30 02:58:59;;;;;;;10.90;4.78;;;;;;;18.02;74.48;102593.88;5030517;28;20029;-75
2023/09/30 03:01:26;;;;;;;12.02;5.13;;;;;;;18.09;73.99;102593.06;5031558;28;20067;-75
2023/09/30 03:03:55;;;;;;;13.10;5.13;;;;;;;18.07;74.28;102587.78;5031027;28;20064;-76
2023/09/30 03:06:23;;;;;;;10.98;5.63;;;;;;;18.06;74.32;102586.00;5031424;28;20033;-75
2023/09/30 03:08:48;;;;;;;10.95;5.47;;;;;;;18.12;74.07;102588.69;5031046;28;20095;-75
2023/09/30 03:11:13;;;;;;;13.45;5.65;;;;;;;18.10;74.17;102600.13;5031138;28;20116;-75
2023/09/30 03:13:42;;;;;;;10.90;4.93;;;;;;;18.12;74.28;102590.44;5030478;28;20080;-75
2023/09/30 03:16:10;;;;;;;17.92;5.63;;;;;;;18.03;74.73;102591.25;5030482;28;20386;-76
2023/09/30 03:18:36;;;;;;;11.60;5.80;;;;;;;17.99;75.04;102586.81;5030980;28;20029;-75
2023/09/30 03:21:13;;;;;;;13.13;5.70;;;;;;;17.99;75.01;102584.16;5029399;28;20039;-76
2023/09/30 03:23:40;;;;;;;13.20;5.43;;;;;;;18.03;74.93;102590.38;5030319;28;20433;-76
2023/09/30 03:26:09;;;;;;;12.10;5.88;;;;;;;18.02;74.78;102600.06;5029483;28;20032;-75
2023/09/30 03:28:36;;;;;;;16.13;6.18;;;;;;;18.02;75.16;102597.41;5030994;28;20041;-76
2023/09/30 03:31:06;;;;;;;11.18;5.80;;;;;;;18.01;75.01;102594.75;5029665;28;20037;-75
2023/09/30 03:33:35;;;;;;;11.77;5.95;;;;;;;17.97;75.30;102587.69;5031373;28;20033;-75
2023/09/30 03:36:00;;;;;;;12.55;5.82;;;;;;;17.97;75.47;102591.22;5033955;28;20499;-77
2023/09/30 03:38:36;;;;;;;12.20;6.22;;;;;;;17.97;75.29;102590.31;5035312;28;20061;-75
2023/09/30 03:41:01;;;;;;;14.25;5.70;;;;;;;18.04;75.20;102600.06;5037585;28;20508;-75
2023/09/30 03:43:26;;;;;;;13.85;5.93;;;;;;;17.95;75.50;102592.94;5035537;28;20248;-75
2023/09/30 03:45:57;;;;;;;15.57;6.25;;;;;;;17.99;75.44;102592.09;5034431;28;20120;-76
2023/09/30 03:48:26;;;;;;;12.77;6.18;;;;;;;17.89;76.12;102587.59;5034726;28;20029;-77
2023/09/30 03:50:52;;;;;;;17.92;6.60;;;;;;;17.99;75.69;102588.59;5036950;28;20087;-74
2023/09/30 03:53:21;;;;;;;12.05;6.45;;;;;;;17.99;75.65;102583.31;5036132;28;20034;-75
2023/09/30 03:55:46;;;;;;;12.02;6.20;;;;;;;17.97;75.56;102580.66;5040468;28;20065;-75
2023/09/30 03:58:12;;;;;;;16.98;6.88;;;;;;;17.94;75.80;102592.91;5050817;28;20040;-78
2023/09/30 04:00:40;;;;;;;16.15;6.50;;;;;;;17.96;75.61;102591.19;5057502;28;20025;-75
2023/09/30 04:03:09;;;;;;;15.25;7.10;;;;;;;17.94;75.59;102590.28;5051651;28;20034;-74
2023/09/30 04:05:36;;;;;;;14.23;7.13;;;;;;;17.90;75.80;102597.28;5035238;28;20443;-77
2023/09/30 04:08:11;;;;;;;14.07;6.80;;;;;;;17.90;75.69;102592.00;5033348;28;20114;-77
2023/09/30 04:10:36;;;;;;;16.83;7.43;;;;;;;17.83;76.22;102591.06;5033568;28;20041;-77
2023/09/30 04:13:02;;;;;;;13.98;7.00;;;;;;;17.78;76.81;102587.50;5033132;28;20085;-75
2023/09/30 04:15:27;;;;;;;18.05;7.05;;;;;;;17.82;76.85;102575.19;5033010;28;20052;-77
2023/09/30 04:17:53;;;;;;;16.00;7.40;;;;;;;17.88;76.29;102591.09;5033109;28;20033;-77
2023/09/30 04:20:22;;;;;;;13.25;6.63;;;;;;;17.92;76.06;102592.03;5033525;28;20044;-75
2023/09/30 04:22:49;;;;;;;14.90;6.88;;;;;;;17.90;76.27;102601.66;5032938;28;20041;-77
2023/09/30 04:25:16;;;;;;;15.20;7.35;;;;;;;17.90;76.30;102599.03;5034266;28;20060;-77
2023/09/30 04:27:48;;;;;;;14.48;7.30;;;;;;;17.95;76.21;102605.25;5034129;28;20034;-76
2023/09/30 04:30:15;;;;;;;16.90;7.90;;;;;;;17.87;76.54;102604.28;5033941;28;20068;-77
2023/09/30 04:32:40;;;;;;;18.08;7.90;;;;;;;17.89;76.39;102606.06;5033882;28;20518;-77
2023/09/30 04:35:12;;;;;;;16.60;7.28;;;;;;;17.92;76.13;102608.75;5034041;28;20068;-77
2023/09/30 04:37:37;;;;;;;15.32;6.95;;;;;;;17.93;75.81;102612.28;5033722;28;20037;-74
2023/09/30 04:40:09;;;;;;;14.45;8.02;;;;;;;17.89;75.97;102611.34;5033147;28;20702;-77
2023/09/30 04:42:37;;;;;;;16.92;7.55;;;;;;;17.83;75.96;102612.16;5033445;28;20045;-74
2023/09/30 04:45:11;;;;;;;16.42;7.30;;;;;;;17.82;75.82;102610.38;5033098;28;20049;-75
2023/09/30 04:47:39;;;;;;;15.13;7.80;;;;;;;17.78;76.69;102620.91;5032802;28;20112;-75
2023/09/30 04:50:07;;;;;;;19.20;7.90;;;;;;;17.81;76.11;102610.34;5031738;28;20033;-76
2023/09/30 04:52:36;;;;;;;16.70;7.38;;;;;;;17.78;76.16;102612.97;5032410;28;20398;-77
2023/09/30 04:55:02;;;;;;;15.60;6.90;;;;;;;17.78;76.51;102602.44;5030556;28;20128;-75
2023/09/30 04:57:31;;;;;;;14.77;7.38;;;;;;;17.76;76.46;102610.31;5033299;28;20546;-77
2023/09/30 04:59:57;;;;;;;19.33;7.78;;;;;;;17.76;76.77;102615.59;5032755;28;20051;-75
2023/09/30 05:02:23;;;;;;;15.77;7.53;;;;;;;17.83;76.15;102614.78;5032571;28;20041;-75
2023/09/30 05:04:52;;;;;;;16.27;7.20;;;;;;;17.84;75.91;102613.94;5032807;28;20117;-74
2023/09/30 05:07:17;;;;;;;17.83;8.07;;;;;;;17.74;76.25;102609.44;5033072;28;20041;-75
2023/09/30 05:09:46;;;;;;;17.35;7.30;;;;;;;17.74;75.91;102614.72;5032546;28;20068;-75
2023/09/30 05:12:11;;;;;;;17.65;7.78;;;;;;;17.68;75.94;102619.03;5033183;28;20036;-74
2023/09/30 05:14:40;;;;;;;15.90;7.50;;;;;;;17.63;76.36;102618.94;5033581;28;20120;-75
2023/09/30 05:17:09;;;;;;;18.63;8.30;;;;;;;17.63;76.57;102623.34;5032578;28;20037;-75
2023/09/30 05:19:35;;;;;;;20.15;8.75;;;;;;;17.63;76.70;102613.66;5033323;28;20103;-76
2023/09/30 05:22:01;;;;;;;16.52;8.07;;;;;;;17.71;76.80;102614.66;5032064;28;20095;-77
2023/09/30 05:24:27;;;;;;;19.23;8.40;;;;;;;17.76;76.92;102612.94;5033249;28;20029;-75
2023/09/30 05:26:56;;;;;;;16.88;8.45;;;;;;;17.79;76.89;102618.28;5032561;28;20417;-75
2023/09/30 05:29:22;;;;;;;21.75;9.20;;;;;;;17.78;77.28;102615.63;5033371;28;20034;-75
2023/09/30 05:31:47;;;;;;;22.73;8.93;;;;;;;17.81;77.19;102618.28;5032032;28;20083;-74
2023/09/30 05:34:13;;;;;;;21.38;9.00;;;;;;;17.80;77.09;102621.81;5032428;28;20124;-77
2023/09/30 05:36:42;;;;;;;20.63;9.38;;;;;;;17.75;77.30;102616.44;5032486;28;20056;-75
2023/09/30 05:39:10;;;;;;;21.63;9.65;;;;;;;17.76;77.24;102620.88;5032139;28;20052;-75
2023/09/30 05:41:35;;;;;;;23.25;9.95;;;;;;;17.78;77.11;102621.78;5032835;28;20490;-75
2023/09/30 05:44:01;;;;;;;18.77;9.23;;;;;;;17.69;77.08;102623.41;5032444;28;20065;-75
2023/09/30 05:46:27;;;;;;;18.92;9.38;;;;;;;17.72;76.82;102623.47;5031665;28;20033;-75
2023/09/30 05:48:58;;;;;;;23.60;9.68;;;;;;;17.67;77.18;102626.06;5031324;28;20106;-75
2023/09/30 05:51:23;;;;;;;24.25;10.02;;;;;;;17.62;77.64;102625.13;5031521;28;20034;-76
2023/09/30 05:53:52;;;;;;;18.67;9.50;;;;;;;17.70;77.07;102630.47;5032290;28;20037;-75
2023/09/30 05:56:23;;;;;;;24.60;10.05;;;;;;;17.65;77.52;102625.13;5032802;28;20037;-76
2023/09/30 05:58:48;;;;;;;23.63;10.48;;;;;;;17.64;77.49;102618.09;5032114;28;20111;-75
2023/09/30 06:01:18;;;;;;;21.73;10.25;;;;;;;17.63;77.43;102625.97;5031146;28;20041;-77
2023/09/30 06:03:47;;;;;;;24.35;10.60;;;;;;;17.68;77.64;102633.09;5030681;28;20680;-76
2023/09/30 06:06:15;;;;;;;26.30;10.77;;;;;;;17.71;77.97;102626.97;5031896;28;20495;-77
2023/09/30 06:08:45;;;;;;;23.45;10.85;;;;;;;17.83;78.23;102632.38;5031224;28;20383;-75
2023/09/30 06:11:17;;;;;;;24.83;11.02;;;;;;;17.92;78.26;102628.97;5030171;28;20562;-76
2023/09/30 06:13:43;;;;;;;27.42;11.43;;;;;;;18.07;78.69;102626.47;5030760;28;20040;-76
2023/09/30 06:16:11;;;;;;;27.67;11.40;;;;;;;18.24;78.61;102630.16;5030412;28;20037;-76
2023/09/30 06:18:39;;;;;;;25.80;11.00;;;;;;;18.37;78.69;102628.53;5030641;28;20037;-76
2023/09/30 06:21:05;;;;;;;21.63;10.55;;;;;;;18.48;78.60;102637.47;5029602;28;20038;-76
2023/09/30 06:23:33;;;;;;;25.08;10.80;;;;;;;18.51;78.38;102643.63;5030460;28;20033;-75
2023/09/30 06:26:04;;;;;;;21.23;10.73;;;;;;;18.61;78.15;102655.19;5029650;28;20037;-75
2023/09/30 06:28:31;;;;;;;23.90;10.40;;;;;;;18.63;78.00;102661.38;5029015;28;20402;-75
2023/09/30 06:30:57;;;;;;;21.20;10.48;;;;;;;18.63;77.40;102661.38;5029990;28;20513;-75
2023/09/30 06:33:23;;;;;;;18.55;9.10;;;;;;;18.74;77.07;102665.00;5033295;28;20037;-75
2023/09/30 06:35:52;;;;;;;20.63;10.00;;;;;;;18.66;76.98;102668.47;5028766;28;20090;-75
2023/09/30 06:38:23;;;;;;;18.52;9.73;;;;;;;18.72;77.57;102676.44;5031590;28;20048;-75
2023/09/30 06:40:48;;;;;;;19.73;9.68;;;;;;;18.63;77.40;102677.22;5030367;28;20048;-75
2023/09/30 06:43:17;;;;;;;20.50;9.85;;;;;;;18.89;77.32;102669.53;5030705;28;20038;-75
2023/09/30 06:45:43;;;;;;;23.00;9.95;;;;;;;18.76;76.50;102670.28;5030774;28;20495;-76
2023/09/30 06:48:12;;;;;;;21.15;9.93;;;;;;;18.85;76.55;102673.88;5031148;28;20113;-75
2023/09/30 06:50:45;;;;;;;21.33;10.15;;;;;;;18.81;76.16;102677.38;5031390;28;20179;-75
2023/09/30 06:53:12;;;;;;;21.90;10.20;;;;;;;18.81;75.96;102684.44;5030630;28;20040;-75
2023/09/30 06:55:43;;;;;;;17.48;9.15;;;;;;;18.73;76.05;102683.47;5030232;28;20139;-75
2023/09/30 06:58:12;;;;;;;16.85;8.95;;;;;;;18.78;75.66;102687.06;5030461;28;20595;-75
2023/09/30 07:00:51;;;;;;;18.98;10.20;;;;;;;18.68;75.59;102691.38;5031317;28;20072;-75
2023/09/30 07:03:19;;;;;;;18.23;10.30;;;;;;;18.89;76.99;102688.91;5030380;28;20061;-75
2023/09/30 07:05:45;;;;;;;20.45;9.75;;;;;;;19.39;76.54;102694.53;5030999;28;20091;-76
2023/09/30 07:08:13;;;;;;;16.45;9.63;;;;;;;20.08;75.74;102700.16;5031369;28;20041;-75
2023/09/30 07:10:42;;;;;;;17.05;10.05;;;;;;;20.25;72.09;102695.78;5030809;28;20033;-75
2023/09/30 07:13:13;;;;;;;15.05;8.90;;;;;;;20.45;71.14;102701.16;5030183;28;20087;-75
2023/09/30 07:15:45;;;;;;;16.85;8.95;;;;;;;20.48;70.18;102698.53;5031080;28;20121;-75
2023/09/30 07:18:17;;;;;;;17.10;9.93;;;;;;;19.91;70.53;102705.41;5029980;28;20124;-75
2023/09/30 07:20:42;;;;;;;15.60;9.55;;;;;;;20.06;71.16;102708.13;5030788;28;20037;-76
2023/09/30 07:23:09;;;;;;;18.80;9.95;;;;;;;19.88;71.16;102713.34;5030521;28;20045;-75
2023/09/30 07:25:37;;;;;;;15.85;9.85;;;;;;;20.21;71.69;102712.56;5030295;28;20399;-76
2023/09/30 07:28:03;;;;;;;16.58;9.70;;;;;;;20.41;70.69;102704.72;5030088;28;20371;-75
2023/09/30 07:30:28;;;;;;;18.70;9.48;;;;;;;20.38;70.00;102713.53;5030273;28;20026;-75
2023/09/30 07:32:53;;;;;;;16.65;9.82;;;;;;;20.38;69.93;102712.63;5030131;28;20045;-75
2023/09/30 07:35:19;;;;;;;18.95;9.50;;;;;;;20.47;68.62;102717.97;5030454;28;20037;-75
2023/09/30 07:37:44;;;;;;;17.73;9.20;;;;;;;20.39;69.77;102717.06;5030426;28;20491;-75
2023/09/30 07:40:10;;;;;;;14.73;9.07;;;;;;;20.45;68.70;102715.31;5031068;28;20048;-75
2023/09/30 07:42:36;;;;;;;16.35;8.95;;;;;;;20.58;69.44;102718.88;5029988;28;20038;-74
2023/09/30 07:45:03;;;;;;;15.70;9.02;;;;;;;20.63;69.19;102715.34;5030874;28;20037;-75
2023/09/30 07:47:46;;;;;;;15.63;9.15;;;;;;;20.55;68.64;102713.56;5030498;28;20029;-74
2023/09/30 07:50:24;;;;;;;17.48;9.23;;;;;;;20.72;68.87;102706.50;5030163;28;20041;-75
2023/09/30 07:52:52;;;;;;;17.88;9.32;;;;;;;20.86;68.54;102701.22;5029447;28;20105;-75
2023/09/30 07:55:17;;;;;;;17.20;9.18;;;;;;;20.84;68.79;102698.56;5029760;28;20029;-75
2023/09/30 07:57:43;;;;;;;14.48;8.40;;;;;;;20.98;68.35;102694.13;5029564;28;20044;-75
2023/09/30 08:00:15;;;;;;;16.83;8.98;;;;;;;21.03;68.46;102699.44;5029623;28;20067;-76
2023/09/30 08:02:41;;;;;;;14.27;8.80;;;;;;;21.33;67.88;102694.13;5029508;28;20038;-74
2023/09/30 08:05:10;;;;;;;14.73;8.45;;;;;;;21.43;67.53;102685.25;5029046;28;20494;-75
2023/09/30 08:07:36;;;;;;;18.67;9.00;;;;;;;21.69;66.47;102681.63;5029270;28;20432;-74
2023/09/30 08:10:06;;;;;;;16.40;9.32;;;;;;;21.64;65.16;102680.75;5029047;28;20125;-75
2023/09/30 08:12:32;;;;;;;16.70;9.45;;;;;;;21.56;66.83;102688.75;5029220;28;20398;-75
2023/09/30 08:15:08;;;;;;;15.65;9.13;;;;;;;22.00;65.27;102696.56;5029015;28;20068;-75
2023/09/30 08:17:33;;;;;;;17.20;9.57;;;;;;;21.70;64.88;102694.91;5029559;28;20037;-76
2023/09/30 08:20:05;;;;;;;18.15;9.20;;;;;;;22.16;64.09;102698.22;5028953;28;20530;-76
2023/09/30 08:22:33;;;;;;;20.65;9.25;;;;;;;22.27;63.98;102687.53;5029797;28;20033;-76
2023/09/30 08:24:59;;;;;;;13.35;8.65;;;;;;;22.44;62.25;102687.44;5028718;28;20090;-75
2023/09/30 08:27:27;;;;;;;15.98;9.13;;;;;;;22.44;62.99;102682.13;5038186;28;20124;-76
2023/09/30 08:29:52;;;;;;;20.27;9.00;;;;;;;22.41;62.81;102687.44;5032231;28;20070;-76
2023/09/30 08:32:26;;;;;;;17.05;8.95;;;;;;;21.93;63.21;102688.59;5032436;28;20030;-74
2023/09/30 08:34:55;;;;;;;17.98;8.93;;;;;;;21.74;64.29;102693.09;5030114;28;20073;-77
2023/09/30 08:37:22;;;;;;;14.65;8.20;;;;;;;22.07;63.81;102697.41;5032438;28;20128;-74
2023/09/30 08:39:48;;;;;;;13.38;8.05;;;;;;;22.16;63.36;102700.88;5031811;28;20122;-75
2023/09/30 08:42:33;;;;;;;16.90;8.85;;;;;;;22.12;64.30;102709.78;5032431;28;20033;-74
2023/09/30 08:44:59;;;;;;;15.50;7.65;;;;;;;22.25;62.46;102707.94;5031912;28;20033;-74
2023/09/30 08:47:31;;;;;;;20.33;8.40;;;;;;;22.62;62.61;102714.78;5032589;28;20068;-75
2023/09/30 08:50:05;;;;;;;14.55;7.40;;;;;;;22.74;60.48;102726.25;5031836;28;20045;-74
2023/09/30 08:52:35;;;;;;;13.57;7.30;;;;;;;22.35;62.30;102730.91;5032079;28;20112;-75
2023/09/30 08:55:01;;;;;;;12.57;5.97;;;;;;;22.45;62.20;102729.94;5031495;28;20037;-76
2023/09/30 08:57:28;;;;;;;12.05;5.32;;;;;;;22.05;62.46;102737.25;5032811;28;20025;-74
2023/09/30 08:59:54;;;;;;;10.50;4.82;;;;;;;22.60;60.70;102743.16;5032095;28;20040;-75
2023/09/30 09:02:34;;;;;;;12.90;4.88;;;;;;;22.71;60.09;102748.38;5031880;28;20037;-75
2023/09/30 09:05:06;;;;;;;10.68;4.40;;;;;;;22.88;58.95;102769.56;5031724;28;20120;-75
2023/09/30 09:07:38;;;;;;;11.48;4.75;;;;;;;22.66;59.12;102764.38;5030740;28;20033;-75
2023/09/30 09:10:09;;;;;;;10.77;4.50;;;;;;;23.23;58.58;102779.94;5031359;28;20034;-76
2023/09/30 09:12:38;;;;;;;14.55;5.30;;;;;;;23.10;58.30;102772.94;5031422;28;20116;-76
2023/09/30 09:15:19;;;;;;;11.52;4.93;;;;;;;23.49;58.17;102769.03;5031244;28;20037;-75
2023/09/30 09:17:52;;;;;;;14.35;5.38;;;;;;;23.43;58.19;102764.63;5031212;28;20044;-75
2023/09/30 09:20:22;;;;;;;13.05;4.90;;;;;;;23.03;58.62;102767.66;5031289;28;20033;-75
2023/09/30 09:22:52;;;;;;;12.35;5.18;;;;;;;22.76;58.95;102772.28;5030696;28;20044;-75
2023/09/30 09:25:24;;;;;;;9.35;4.30;;;;;;;23.13;58.59;102767.56;5030180;28;20038;-75
2023/09/30 09:27:51;;;;;;;10.68;4.65;;;;;;;22.88;59.21;102774.88;5030849;28;20037;-76
2023/09/30 09:30:20;;;;;;;11.15;4.80;;;;;;;23.22;57.87;102770.16;5031305;28;20034;-75
2023/09/30 09:32:53;;;;;;;10.80;4.70;;;;;;;22.98;59.18;102777.47;5030827;28;20072;-76
2023/09/30 09:35:20;;;;;;;8.75;4.00;;;;;;;23.35;57.07;102767.38;5031013;28;20044;-75
2023/09/30 09:37:58;;;;;;;11.23;3.75;;;;;;;23.67;55.75;102767.06;5030325;28;20041;-76
2023/09/30 09:40:27;;;;;;;9.13;3.50;;;;;;;23.06;56.21;102770.28;5030819;28;20408;-75
2023/09/30 09:43:04;;;;;;;10.43;3.70;;;;;;;23.68;55.77;102758.19;5030389;28;20119;-74
2023/09/30 09:45:34;;;;;;;10.52;3.55;;;;;;;23.93;55.12;102761.44;5029924;28;20418;-75
2023/09/30 09:48:00;;;;;;;9.65;3.47;;;;;;;23.36;56.29;102768.28;5030781;28;20044;-75
2023/09/30 09:50:29;;;;;;;11.18;3.47;;;;;;;23.20;55.86;102775.50;5030146;28;20403;-76
2023/09/30 09:52:59;;;;;;;9.55;2.80;;;;;;;23.28;54.28;102770.13;5030286;28;20037;-76
2023/09/30 09:55:26;;;;;;;10.55;2.55;;;;;;;23.83;54.85;102766.00;5030977;28;20033;-76
2023/09/30 09:57:55;;;;;;;8.80;2.60;;;;;;;;;;5030151;28;20487;-74
2023/09/30 10:00:26;;;;;;;9.07;2.60;;;;;;;24.02;53.30;102756.00;5030788;28;20029;-75
2023/09/30 10:02:54;;;;;;;9.13;2.38;;;;;;;23.47;53.21;102753.09;5029864;28;20518;-73
2023/09/30 10:05:21;;;;;;;8.27;2.30;;;;;;;22.90;55.48;102749.16;5030592;28;20112;-75
2023/09/30 10:07:55;;;;;;;10.95;3.10;;;;;;;22.86;54.51;102747.44;5030210;28;20403;-75
2023/09/30 10:10:28;;;;;;;8.32;2.40;;;;;;;22.95;52.19;102736.69;5030851;28;20048;-74
2023/09/30 10:12:53;;;;;;;8.43;2.20;;;;;;;22.86;51.05;102740.34;5030178;28;20041;-75
2023/09/30 10:15:24;;;;;;;8.70;2.42;;;;;;;22.69;51.58;102736.84;5029315;28;20090;-76
2023/09/30 10:18:16;;;;;;;10.10;2.28;;;;;;;22.40;52.61;102741.50;5029713;28;20091;-75
2023/09/30 10:20:58;;;;;;;9.40;2.17;;;;;;;22.27;51.39;102746.00;5000839;28;20546;-74
2023/09/30 10:23:25;;;;;;;8.10;2.00;;;;;;;22.22;52.28;102743.38;5030493;28;20540;-75
2023/09/30 10:26:11;;;;;;;10.35;2.20;;;;;;;22.01;53.17;102747.91;5030187;28;20044;-75
2023/09/30 10:28:41;;;;;;;7.50;2.17;;;;;;;22.16;53.49;102748.72;5030320;28;20613;-75
2023/09/30 10:31:17;;;;;;;8.85;2.30;;;;;;;22.06;53.47;102738.16;5029709;28;20091;-74
2023/09/30 10:34:01;;;;;;;9.60;2.08;;;;;;;21.96;53.63;102741.72;5029956;28;20056;-75
2023/09/30 10:36:32;;;;;;;6.88;2.00;;;;;;;22.12;53.01;102739.00;5031314;28;20030;-76
2023/09/30 10:38:58;;;;;;;10.63;2.30;;;;;;;22.23;55.14;102738.94;5030463;28;20556;-76
2023/09/30 10:41:39;;;;;;;7.18;1.98;;;;;;;22.25;54.38;102739.81;5032278;28;20663;-75
2023/09/30 10:44:26;;;;;;;6.20;1.98;;;;;;;22.66;53.79;102745.75;5034296;28;20042;-75
2023/09/30 10:46:53;;;;;;;8.52;1.98;;;;;;;22.80;54.93;102742.16;5045637;28;20087;-75
2023/09/30 10:49:28;;;;;;;7.82;2.45;;;;;;;22.48;55.74;102745.00;5043647;28;20401;-75
2023/09/30 10:51:59;;;;;;;8.77;2.25;;;;;;;22.80;56.07;102739.50;5041787;28;20041;-74
2023/09/30 10:54:30;;;;;;;9.98;2.65;;;;;;;23.00;54.87;102743.72;5031838;28;20037;-75
2023/09/30 10:56:59;;;;;;;9.80;2.30;;;;;;;22.97;53.91;102746.44;5031716;28;20029;-75
2023/09/30 10:59:27;;;;;;;8.30;2.50;;;;;;;23.32;53.62;102737.25;5030991;28;20042;-75
2023/09/30 11:01:56;;;;;;;7.13;2.05;;;;;;;23.53;53.55;102744.16;5030218;28;20052;-72
2023/09/30 11:04:22;;;;;;;9.57;2.80;;;;;;;23.54;52.21;102736.16;5041673;22;20131;-44
2023/09/30 11:06:47;;;;;;;6.15;2.10;;;;;;;23.80;51.71;102723.41;5009248;28;20121;-44
2023/09/30 11:09:20;;;;;;;8.05;2.38;;;;;;;23.75;50.42;102714.59;5009907;28;20121;-44
2023/09/30 11:11:50;;;;;;;6.57;2.20;;;;;;;23.67;49.03;102716.47;4991671;28;20034;-46
2023/09/30 11:14:30;;;;;;;7.20;2.30;;;;;;;23.74;48.90;102710.19;4972899;28;20065;-45
2023/09/30 11:17:01;;;;;;;8.75;2.38;;;;;;;23.71;49.27;102706.69;4989640;28;20418;-46
2023/09/30 11:19:34;;;;;;;7.95;2.33;;;;;;;23.67;49.66;102711.13;4990013;28;20033;-46
2023/09/30 11:22:00;;;;;;;8.75;2.50;;;;;;;23.76;49.67;102707.50;4989140;28;20042;-45
2023/09/30 11:24:26;;;;;;;9.85;3.05;;;;;;;23.15;51.72;102712.56;4990385;28;20413;-45
2023/09/30 11:26:57;;;;;;;7.57;2.55;;;;;;;22.67;53.59;102717.41;4989503;28;20035;-44